Time;durP1;ratioP1;P1;durP2;ratioP2;P2;SDS_P1;SDS_P2;PMS_P1;PMS_P2;Temp;Humidity;BMP_temperature;BMP_pressure;BME280_temperature;BME280_humidity;BME280_pressure;Samples;Min_cycle;Max_cycle;Signal;HPM_P1;HPM_P2
2023/01/25 00:01:16;;;;;;;;;;;;;;;26.33;50.55;98349.80;622107;228;63956;-67
2023/01/25 00:03:43;;;;;;;;;;;;;;;26.32;49.92;98347.36;622131;228;67172;-67
2023/01/25 00:06:11;;;;;;;;;;;;;;;26.31;48.99;98343.86;622091;228;64847;-65
2023/01/25 00:08:38;;;;;;;;;;;;;;;26.31;49.62;98337.67;622065;228;61832;-65
2023/01/25 00:11:06;;;;;;;;;;;;;;;26.30;50.22;98347.65;622085;228;65624;-65
2023/01/25 00:13:33;;;;;;;;;;;;;;;26.30;50.00;98336.87;622120;228;66829;-65
2023/01/25 00:16:01;;;;;;;;;;;;;;;26.30;50.05;98344.12;622144;228;64987;-65
2023/01/25 00:18:29;;;;;;;;;;;;;;;26.29;49.09;98339.83;622093;228;67074;-65
2023/01/25 00:20:58;;;;;;;;;;;;;;;26.28;49.27;98338.22;621763;228;67375;-65
2023/01/25 00:23:26;;;;;;;;;;;;;;;26.27;49.69;98341.98;622105;228;62945;-65
2023/01/25 00:25:57;;;;;;;;;;;;;;;26.27;50.60;98337.42;622091;228;67210;-65
2023/01/25 00:28:24;;;;;;;;;;;;;;;26.26;50.40;98349.27;622108;228;65126;-65
2023/01/25 00:30:52;;;;;;;;;;;;;;;26.25;49.20;98344.97;622095;228;63672;-65
2023/01/25 00:33:39;;;;;;;;;;;;;;;26.25;50.75;98350.35;622042;228;67033;-65
2023/01/25 00:36:23;;;;;;;;;;;;;;;26.23;50.09;98347.12;622098;228;67347;-66
2023/01/25 00:38:52;;;;;;;;;;;;;;;26.25;49.42;98350.35;622063;225;62636;-65
2023/01/25 00:41:20;;;;;;;;;;;;;;;26.22;49.56;98345.52;622099;228;67808;-66
2023/01/25 00:43:48;;;;;;;;;;;;;;;26.21;49.74;98349.27;622101;228;67891;-65
2023/01/25 00:46:17;;;;;;;;;;;;;;;26.20;49.71;98336.89;622058;228;65071;-65
2023/01/25 00:48:45;;;;;;;;;;;;;;;26.20;49.97;98336.89;622084;228;65096;-65
2023/01/25 00:51:12;;;;;;;;;;;;;;;26.18;49.01;98336.34;622080;228;64843;-65
2023/01/25 00:53:40;;;;;;;;;;;;;;;26.18;49.96;98330.95;622073;228;65167;-65
2023/01/25 00:56:07;;;;;;;;;;;;;;;26.18;50.31;98332.85;622097;228;67158;-65
2023/01/25 00:58:35;;;;;;;;;;;;;;;26.16;49.76;98332.31;622108;228;67700;-65
2023/01/25 01:01:04;;;;;;;;;;;;;;;26.16;50.82;98332.31;622088;228;63713;-65
2023/01/25 01:03:32;;;;;;;;;;;;;;;26.13;49.94;98337.16;622093;228;67778;-65
2023/01/25 01:06:01;;;;;;;;;;;;;;;26.13;49.13;98331.77;622055;228;66947;-65
2023/01/25 01:08:28;;;;;;;;;;;;;;;26.13;50.24;98329.07;622069;228;62948;-65
2023/01/25 01:10:59;;;;;;;;;;;;;;;26.12;50.20;98327.47;622089;228;67273;-65
2023/01/25 01:13:27;;;;;;;;;;;;;;;26.12;49.23;98326.67;622071;228;64990;-65
2023/01/25 01:15:55;;;;;;;;;;;;;;;26.11;49.85;98327.77;622081;228;63577;-65
2023/01/25 01:18:24;;;;;;;;;;;;;;;26.10;49.82;98323.43;622063;228;67104;-65
2023/01/25 01:20:54;;;;;;;;;;;;;;;26.09;48.77;98325.33;622065;228;65013;-65
2023/01/25 01:23:22;;;;;;;;;;;;;;;26.09;49.43;98314.55;622104;228;65023;-65
2023/01/25 01:25:49;;;;;;;;;;;;;;;26.08;50.57;98321.03;622081;228;64978;-65
2023/01/25 01:28:17;;;;;;;;;;;;;;;26.08;49.91;98317.50;622083;228;66633;-65
2023/01/25 01:30:44;;;;;;;;;;;;;;;26.07;51.45;98313.20;622069;228;65739;-65
2023/01/25 01:33:12;;;;;;;;;;;;;;;26.07;50.86;98313.20;622074;228;67221;-65
2023/01/25 01:35:40;;;;;;;;;;;;;;;26.06;50.84;98314.30;622107;228;65101;-65
2023/01/25 01:38:07;;;;;;;;;;;;;;;26.06;48.58;98308.91;622105;228;63641;-65
2023/01/25 01:40:35;;;;;;;;;;;;;;;26.04;48.90;98311.86;622643;228;64824;-65
2023/01/25 01:43:04;;;;;;;;;;;;;;;26.04;50.68;98313.75;622824;228;67267;-65
2023/01/25 01:45:49;;;;;;;;;;;;;;;26.03;49.06;98301.37;622817;228;65929;-66
2023/01/25 01:48:26;;;;;;;;;;;;;;;26.03;50.60;98310.26;622787;228;45189;-65
2023/01/25 01:50:55;;;;;;;;;;;;;;;26.01;49.14;98303.53;622908;228;64699;-65
2023/01/25 01:53:24;;;;;;;;;;;;;;;26.01;49.68;98311.61;622692;225;65489;-66
2023/01/25 01:55:53;;;;;;;;;;;;;;;26.00;50.28;98312.67;622849;228;66623;-66
2023/01/25 01:58:21;;;;;;;;;;;;;;;25.99;49.36;98308.37;622830;228;64296;-66
2023/01/25 02:00:49;;;;;;;;;;;;;;;25.99;49.70;98308.37;622779;228;65014;-66
2023/01/25 02:03:18;;;;;;;;;;;;;;;25.97;48.65;98308.63;622835;228;65703;-66
2023/01/25 02:05:50;;;;;;;;;;;;;;;25.97;50.21;98305.94;622860;228;66855;-66
2023/01/25 02:08:18;;;;;;;;;;;;;;;25.96;50.53;98306.23;622739;228;65735;-65
2023/01/25 02:10:46;;;;;;;;;;;;;;;25.94;49.40;98309.18;622869;228;66850;-65
2023/01/25 02:13:14;;;;;;;;;;;;;;;25.93;50.03;98304.89;622836;228;64244;-67
2023/01/25 02:15:43;;;;;;;;;;;;;;;25.93;50.03;98304.08;622805;228;62954;-67
2023/01/25 02:18:11;;;;;;;;;;;;;;;25.92;49.93;98303.28;622800;228;67818;-67
2023/01/25 02:20:40;;;;;;;;;;;;;;;25.91;51.10;98299.76;622893;228;65034;-67
2023/01/25 02:23:26;;;;;;;;;;;;;;;25.90;50.27;98292.77;622811;228;62998;-67
2023/01/25 02:25:55;;;;;;;;;;;;;;;25.90;49.65;98294.66;622819;228;67270;-68
2023/01/25 02:28:24;;;;;;;;;;;;;;;25.87;50.87;98287.93;622833;228;67046;-68
2023/01/25 02:30:51;;;;;;;;;;;;;;;25.86;51.32;98291.72;622856;228;64815;-68
2023/01/25 02:33:18;;;;;;;;;;;;;;;25.86;50.10;98294.41;622867;228;66990;-68
2023/01/25 02:35:48;;;;;;;;;;;;;;;25.84;50.22;98291.17;622902;228;67594;-68
2023/01/25 02:38:17;;;;;;;;;;;;;;;25.84;49.74;98283.09;622855;228;67216;-68
2023/01/25 02:40:46;;;;;;;;;;;;;;;25.83;50.94;98272.55;622149;228;67863;-66
2023/01/25 02:43:15;;;;;;;;;;;;;;;25.82;49.91;98282.52;622144;228;67223;-68
2023/01/25 02:45:44;;;;;;;;;;;;;;;25.83;50.37;98280.63;622076;228;64882;-68
2023/01/25 02:48:12;;;;;;;;;;;;;;;25.81;49.70;98280.91;622156;228;67445;-68
2023/01/25 02:50:39;;;;;;;;;;;;;;;25.81;49.78;98277.39;622087;228;67321;-68
2023/01/25 02:53:07;;;;;;;;;;;;;;;25.80;48.44;98279.28;622071;228;62573;-68
2023/01/25 02:55:34;;;;;;;;;;;;;;;25.79;49.79;98277.68;622107;228;67323;-68
2023/01/25 02:58:02;;;;;;;;;;;;;;;25.78;50.08;98276.08;622091;228;67645;-68
2023/01/25 03:00:30;;;;;;;;;;;;;;;25.78;48.96;98269.86;622139;228;62899;-68
2023/01/25 03:02:58;;;;;;;;;;;;;;;25.76;49.18;98272.84;622146;225;67645;-68
2023/01/25 03:05:26;;;;;;;;;;;;;;;25.76;49.60;98267.45;622085;228;65231;-68
2023/01/25 03:07:53;;;;;;;;;;;;;;;25.76;49.30;98275.53;622108;228;64874;-68
2023/01/25 03:10:21;;;;;;;;;;;;;;;25.75;50.38;98271.20;622088;228;67444;-68
2023/01/25 03:12:49;;;;;;;;;;;;;;;25.74;49.78;98271.50;622101;228;64487;-68
2023/01/25 03:15:17;;;;;;;;;;;;;;;25.72;49.30;98271.75;622119;228;63000;-68
2023/01/25 03:17:44;;;;;;;;;;;;;;;25.72;51.31;98271.75;622081;228;67446;-68
2023/01/25 03:20:12;;;;;;;;;;;;;;;25.72;51.63;98274.45;622064;228;66937;-68
2023/01/25 03:22:40;;;;;;;;;;;;;;;25.70;51.14;98273.94;622104;228;65039;-68
2023/01/25 03:25:08;;;;;;;;;;;;;;;25.68;49.92;98271.50;622081;228;67178;-68
2023/01/25 03:27:36;;;;;;;;;;;;;;;25.68;49.80;98268.01;622144;228;67119;-68
2023/01/25 03:30:05;;;;;;;;;;;;;;;25.68;52.54;98268.01;621999;228;41916;-68
2023/01/25 03:32:33;;;;;;;;;;;;;;;25.67;49.78;98269.06;622113;228;64808;-68
2023/01/25 03:35:02;;;;;;;;;;;;;;;25.66;48.56;98279.03;622024;228;44280;-68
2023/01/25 03:37:30;;;;;;;;;;;;;;;25.65;49.21;98279.32;622081;228;65637;-68
2023/01/25 03:39:58;;;;;;;;;;;;;;;25.65;48.49;98271.25;622523;228;68056;-68
2023/01/25 03:42:26;;;;;;;;;;;;;;;25.65;49.41;98271.25;622837;225;64993;-66
2023/01/25 03:44:55;;;;;;;;;;;;;;;25.63;50.16;98268.01;622817;228;46736;-66
2023/01/25 03:47:22;;;;;;;;;;;;;;;25.63;50.22;98268.01;622823;228;64879;-66
2023/01/25 03:49:51;;;;;;;;;;;;;;;25.62;51.65;98271.79;622825;228;67480;-66
2023/01/25 03:52:19;;;;;;;;;;;;;;;25.61;49.18;98267.47;622892;228;62506;-66
2023/01/25 03:54:47;;;;;;;;;;;;;;;25.61;50.95;98276.34;622881;228;67991;-66
2023/01/25 03:57:14;;;;;;;;;;;;;;;25.60;49.06;98272.05;622848;228;67253;-66
2023/01/25 03:59:47;;;;;;;;;;;;;;;25.59;49.30;98277.69;621885;228;44049;-65
2023/01/25 04:02:14;;;;;;;;;;;;;;;25.58;51.23;98278.78;622833;228;67877;-65
2023/01/25 04:04:42;;;;;;;;;;;;;;;25.57;49.26;98280.67;622818;228;67325;-65
2023/01/25 04:07:10;;;;;;;;;;;;;;;25.57;50.62;98277.17;622884;228;65734;-65
2023/01/25 04:09:39;;;;;;;;;;;;;;;25.56;50.65;98278.23;622837;228;67081;-65
2023/01/25 04:12:06;;;;;;;;;;;;;;;25.55;50.11;98280.13;622826;226;64946;-65
2023/01/25 04:14:35;;;;;;;;;;;;;;;25.55;50.36;98273.94;622822;228;65056;-65
2023/01/25 04:17:07;;;;;;;;;;;;;;;25.53;49.87;98274.20;622696;228;67100;-65
2023/01/25 04:19:36;;;;;;;;;;;;;;;25.52;48.91;98277.98;622763;228;46693;-66
2023/01/25 04:22:04;;;;;;;;;;;;;;;25.51;49.61;98276.38;622457;228;64884;-65
2023/01/25 04:24:33;;;;;;;;;;;;;;;25.51;50.64;98278.23;622099;228;44157;-66
2023/01/25 04:27:01;;;;;;;;;;;;;;;25.49;49.67;98272.33;622825;228;64765;-66
2023/01/25 04:29:30;;;;;;;;;;;;;;;25.49;50.56;98277.72;622723;228;64999;-66
2023/01/25 04:31:58;;;;;;;;;;;;;;;25.46;49.98;98266.41;622024;228;67959;-66
2023/01/25 04:34:25;;;;;;;;;;;;;;;25.45;50.36;98272.88;622828;225;65688;-66
2023/01/25 04:36:53;;;;;;;;;;;;;;;25.45;50.66;98278.27;622833;228;65763;-66
2023/01/25 04:39:21;;;;;;;;;;;;;;;25.44;50.60;98279.32;622792;228;65022;-66
2023/01/25 04:41:48;;;;;;;;;;;;;;;25.45;50.65;98277.43;622827;228;65504;-66
2023/01/25 04:44:16;;;;;;;;;;;;;;;25.43;49.94;98271.53;622788;228;65013;-66
2023/01/25 04:46:46;;;;;;;;;;;;;;;25.43;49.77;98277.72;622895;228;65745;-66
2023/01/25 04:49:13;;;;;;;;;;;;;;;25.42;49.50;98276.08;622801;228;64699;-66
2023/01/25 04:51:41;;;;;;;;;;;;;;;25.42;49.23;98283.35;622661;228;62817;-66
2023/01/25 04:54:09;;;;;;;;;;;;;;;25.40;49.52;98280.95;616532;228;67690;-65
2023/01/25 04:56:36;;;;;;;;;;;;;;;25.39;50.52;98271.24;615790;230;66999;-65
2023/01/25 04:59:04;;;;;;;;;;;;;;;25.40;50.38;98269.35;615812;230;63702;-65
2023/01/25 05:01:32;;;;;;;;;;;;;;;25.38;50.09;98283.09;615766;229;65985;-65
2023/01/25 05:04:00;;;;;;;;;;;;;;;25.38;50.87;98268.84;615774;230;67518;-65
2023/01/25 05:06:30;;;;;;;;;;;;;;;25.37;50.74;98277.97;615452;230;45023;-65
2023/01/25 05:08:58;;;;;;;;;;;;;;;25.35;49.65;98270.18;615775;230;67677;-65
2023/01/25 05:11:27;;;;;;;;;;;;;;;25.35;49.64;98272.88;615834;230;66659;-65
2023/01/25 05:13:56;;;;;;;;;;;;;;;25.34;50.63;98271.23;615682;230;42603;-65
2023/01/25 05:16:25;;;;;;;;;;;;;;;25.34;50.24;98278.52;615690;228;44357;-66
2023/01/25 05:18:54;;;;;;;;;;;;;;;25.32;50.71;98275.27;615696;230;67426;-66
2023/01/25 05:24:10;;;;;;;;;;;;;;;25.30;49.79;98272.87;615772;230;65904;-65
2023/01/25 05:29:23;;;;;;;;;;;;;;;25.30;50.59;98269.38;615752;230;62582;-66
2023/01/25 05:31:53;;;;;;;;;;;;;;;25.29;50.03;98273.13;615615;230;46865;-66
2023/01/25 05:34:20;;;;;;;;;;;;;;;25.28;50.61;98266.94;615756;230;67107;-66
2023/01/25 05:36:48;;;;;;;;;;;;;;;25.28;51.26;98271.52;615797;230;65021;-66
2023/01/25 05:39:15;;;;;;;;;;;;;;;25.27;50.04;98270.72;616277;229;64242;-65
2023/01/25 05:41:44;;;;;;;;;;;;;;;25.28;50.27;98274.20;617705;229;64428;-65
2023/01/25 05:44:12;;;;;;;;;;;;;;;25.28;51.12;98277.70;617640;229;65047;-66
2023/01/25 05:46:40;;;;;;;;;;;;;;;25.28;51.18;98282.28;617673;229;67922;-66
2023/01/25 05:49:08;;;;;;;;;;;;;;;25.26;50.50;98287.91;617672;229;67045;-67
2023/01/25 05:51:37;;;;;;;;;;;;;;;25.28;49.68;98293.05;617662;229;62379;-68
2023/01/25 05:54:05;;;;;;;;;;;;;;;25.27;50.79;98286.86;617706;229;66943;-67
2023/01/25 05:56:33;;;;;;;;;;;;;;;25.26;50.60;98285.23;617686;229;67067;-68
2023/01/25 05:59:03;;;;;;;;;;;;;;;25.27;51.24;98288.75;617749;229;62493;-67
2023/01/25 06:01:30;;;;;;;;;;;;;;;25.27;51.45;98283.37;617741;229;64654;-67
2023/01/25 06:03:58;;;;;;;;;;;;;;;25.27;51.16;98286.06;617740;229;67182;-67
2023/01/25 06:06:25;;;;;;;;;;;;;;;25.27;51.27;98286.86;617770;229;64864;-68
2023/01/25 06:08:53;;;;;;;;;;;;;;;25.28;49.10;98293.84;617688;229;66984;-67
2023/01/25 06:11:22;;;;;;;;;;;;;;;25.28;50.39;98293.05;617732;229;64367;-67
2023/01/25 06:13:51;;;;;;;;;;;;;;;25.27;50.24;98292.24;617717;229;65680;-67
2023/01/25 06:16:20;;;;;;;;;;;;;;;25.28;50.73;98288.47;617799;228;43860;-67
2023/01/25 06:19:08;;;;;;;;;;;;;;;25.30;50.95;98285.52;610366;232;46547;-67
2023/01/25 06:21:37;;;;;;;;;;;;;;;25.30;50.98;98285.52;606363;232;46828;-67
2023/01/25 06:24:05;;;;;;;;;;;;;;;25.30;50.43;98280.94;612857;229;64285;-67
2023/01/25 06:26:32;;;;;;;;;;;;;;;25.30;50.93;98280.14;617717;229;66812;-67
2023/01/25 06:29:00;;;;;;;;;;;;;;;25.30;49.19;98291.70;617716;229;65036;-67
2023/01/25 06:31:27;;;;;;;;;;;;;;;25.30;49.32;98291.70;617693;229;65116;-67
2023/01/25 06:33:56;;;;;;;;;;;;;;;25.33;50.97;98293.85;617653;229;66027;-67
2023/01/25 06:36:24;;;;;;;;;;;;;;;25.33;50.53;98296.55;617744;229;64986;-67
2023/01/25 06:38:52;;;;;;;;;;;;;;;25.33;49.74;98296.55;617681;229;67137;-67
2023/01/25 06:41:20;;;;;;;;;;;;;;;25.34;50.61;98292.77;617708;229;66971;-67
2023/01/25 06:43:49;;;;;;;;;;;;;;;25.34;50.44;98289.27;617711;229;65202;-67
2023/01/25 06:46:16;;;;;;;;;;;;;;;25.35;50.77;98293.59;617671;229;67954;-67
2023/01/25 06:48:44;;;;;;;;;;;;;;;25.35;49.14;98296.29;617750;229;68106;-67
2023/01/25 06:51:12;;;;;;;;;;;;;;;25.35;51.09;98291.70;617710;229;65022;-67
2023/01/25 06:53:41;;;;;;;;;;;;;;;25.36;50.80;98296.00;617697;229;66945;-67
2023/01/25 06:56:10;;;;;;;;;;;;;;;25.38;50.27;98293.05;617679;229;64897;-67
2023/01/25 06:58:38;;;;;;;;;;;;;;;25.38;51.35;98298.44;617694;229;63763;-67
2023/01/25 07:01:07;;;;;;;;;;;;;;;25.38;48.79;98295.75;617724;229;66228;-67
2023/01/25 07:03:34;;;;;;;;;;;;;;;25.39;51.70;98290.08;617690;229;64767;-67
2023/01/25 07:06:03;;;;;;;;;;;;;;;25.39;50.71;98290.08;617174;227;62774;-67
2023/01/25 07:08:31;;;;;;;;;;;;;;;25.39;52.28;98295.46;617455;229;67233;-68
2023/01/25 07:11:00;;;;;;;;;;;;;;;25.41;51.09;98309.47;617500;229;67063;-67
2023/01/25 07:13:29;;;;;;;;;;;;;;;25.42;51.25;98296.81;617593;229;64810;-67
2023/01/25 07:15:57;;;;;;;;;;;;;;;25.44;50.13;98298.16;617702;229;64569;-69
2023/01/25 07:18:25;;;;;;;;;;;;;;;25.46;49.17;98301.39;617593;229;67077;-68
2023/01/25 07:20:53;;;;;;;;;;;;;;;25.48;49.18;98303.80;617597;229;65047;-67
2023/01/25 07:23:20;;;;;;;;;;;;;;;25.49;48.90;98297.36;617633;229;67297;-67
2023/01/25 07:25:49;;;;;;;;;;;;;;;25.51;50.53;98297.91;617616;229;64543;-66
2023/01/25 07:28:17;;;;;;;;;;;;;;;25.54;48.50;98293.87;617585;229;65065;-65
2023/01/25 07:30:44;;;;;;;;;;;;;;;25.55;49.99;98298.16;617648;229;67229;-67
2023/01/25 07:33:12;;;;;;;;;;;;;;;25.57;49.80;98296.02;617635;229;67129;-67
2023/01/25 07:35:41;;;;;;;;;;;;;;;25.56;49.84;98294.38;617600;229;65532;-67
2023/01/25 07:38:08;;;;;;;;;;;;;;;25.56;49.33;98297.08;617601;227;68110;-65
2023/01/25 07:40:37;;;;;;;;;;;;;;;25.57;51.80;98290.63;615734;229;66579;-67
2023/01/25 07:43:04;;;;;;;;;;;;;;;25.58;49.60;98292.23;615341;230;65011;-67
2023/01/25 07:45:32;;;;;;;;;;;;;;;25.59;49.98;98291.98;615382;230;67220;-67
2023/01/25 07:48:00;;;;;;;;;;;;;;;25.60;49.97;98290.09;615313;230;67863;-67
2023/01/25 07:50:28;;;;;;;;;;;;;;;25.60;47.88;98285.51;615333;230;64849;-67
2023/01/25 07:52:57;;;;;;;;;;;;;;;25.62;47.82;98287.95;615373;230;67914;-67
2023/01/25 07:55:25;;;;;;;;;;;;;;;25.62;48.25;98294.13;615366;230;65040;-67
2023/01/25 07:57:55;;;;;;;;;;;;;;;25.64;49.58;98291.15;615305;230;65016;-67
2023/01/25 08:00:22;;;;;;;;;;;;;;;25.63;47.83;98284.16;615331;228;63977;-66
2023/01/25 08:02:50;;;;;;;;;;;;;;;25.66;49.82;98289.00;615393;230;64919;-67
2023/01/25 08:05:18;;;;;;;;;;;;;;;25.65;51.45;98287.40;615335;230;64993;-67
2023/01/25 08:07:47;;;;;;;;;;;;;;;25.65;48.63;98282.81;615290;230;67763;-71
2023/01/25 08:10:14;;;;;;;;;;;;;;;25.66;49.30;98280.92;615314;230;64991;-68
2023/01/25 08:12:45;;;;;;;;;;;;;;;25.67;49.08;98286.05;615311;230;62914;-69
2023/01/25 08:15:13;;;;;;;;;;;;;;;25.68;49.57;98281.47;615275;230;67431;-69
2023/01/25 08:17:40;;;;;;;;;;;;;;;25.68;49.82;98293.04;615319;230;66723;-67
2023/01/25 08:20:08;;;;;;;;;;;;;;;25.68;49.50;98293.04;615349;230;64852;-66
2023/01/25 08:22:40;;;;;;;;;;;;;;;25.70;49.11;98292.78;615192;230;46890;-65
2023/01/25 08:25:08;;;;;;;;;;;;;;;25.72;49.92;98287.11;615312;230;67273;-64
2023/01/25 08:27:36;;;;;;;;;;;;;;;25.71;47.49;98293.59;615346;230;65154;-66
2023/01/25 08:30:03;;;;;;;;;;;;;;;25.72;49.21;98285.22;615364;230;67358;-66
2023/01/25 08:32:31;;;;;;;;;;;;;;;25.69;42.39;98293.84;615285;230;67084;-68
2023/01/25 08:34:58;;;;;;;;;;;;;;;25.68;48.56;98293.04;615418;230;62960;-71
2023/01/25 08:37:28;;;;;;;;;;;;;;;25.67;46.38;98290.61;615368;230;64848;-65
2023/01/25 08:39:58;;;;;;;;;;;;;;;25.68;46.00;98286.85;615265;229;64965;-65
2023/01/25 08:42:26;;;;;;;;;;;;;;;25.69;47.68;98291.95;615357;230;65064;-65
2023/01/25 08:44:53;;;;;;;;;;;;;;;25.71;46.49;98291.69;615342;230;67240;-65
2023/01/25 08:47:21;;;;;;;;;;;;;;;25.73;47.90;98286.02;615338;230;64933;-66
2023/01/25 08:49:49;;;;;;;;;;;;;;;25.73;45.65;98292.23;615358;230;63026;-65
2023/01/25 08:52:17;;;;;;;;;;;;;;;25.76;49.89;98297.08;615333;230;67108;-66
2023/01/25 08:54:45;;;;;;;;;;;;;;;25.75;48.50;98292.75;615351;230;66693;-66
2023/01/25 08:57:12;;;;;;;;;;;;;;;25.75;48.33;98289.25;615370;230;64907;-66
2023/01/25 08:59:40;;;;;;;;;;;;;;;25.75;48.26;98292.75;615378;230;67213;-66
2023/01/25 09:02:08;;;;;;;;;;;;;;;25.76;47.19;98291.69;615253;230;67392;-66
2023/01/25 09:04:36;;;;;;;;;;;;;;;25.78;48.75;98291.40;615340;230;59053;-67
2023/01/25 09:07:04;;;;;;;;;;;;;;;25.77;46.31;98285.22;615314;230;67017;-67
2023/01/25 09:09:33;;;;;;;;;;;;;;;25.77;47.31;98289.80;615347;230;64538;-66
2023/01/25 09:12:01;;;;;;;;;;;;;;;25.77;49.44;98287.11;615338;230;63838;-69
2023/01/25 09:14:29;;;;;;;;;;;;;;;25.77;47.58;98287.11;615336;230;65875;-64
2023/01/25 09:16:56;;;;;;;;;;;;;;;25.77;42.23;98287.11;615335;230;64860;-66
2023/01/25 09:19:24;;;;;;;;;;;;;;;25.78;45.45;98286.02;615373;230;62940;-66
2023/01/25 09:21:51;;;;;;;;;;;;;;;25.75;48.35;98292.75;615306;230;66940;-64
2023/01/25 09:24:19;;;;;;;;;;;;;;;25.73;48.94;98283.33;615318;230;67038;-70
2023/01/25 09:26:46;;;;;;;;;;;;;;;25.71;48.23;98283.61;615340;230;65361;-66
2023/01/25 09:29:13;;;;;;;;;;;;;;;25.70;47.68;98279.32;615303;230;67464;-66
2023/01/25 09:31:44;;;;;;;;;;;;;;;25.71;48.54;98267.46;615358;230;66891;-66
2023/01/25 09:34:14;;;;;;;;;;;;;;;25.69;48.40;98264.23;615314;230;65713;-66
2023/01/25 09:36:41;;;;;;;;;;;;;;;25.68;48.48;98255.34;615288;230;67268;-66
2023/01/25 09:39:13;;;;;;;;;;;;;;;25.69;48.51;98253.45;616137;229;66965;-65
2023/01/25 09:41:42;;;;;;;;;;;;;;;25.70;48.98;98255.09;618735;229;65098;-68
2023/01/25 09:44:12;;;;;;;;;;;;;;;25.69;49.26;98250.77;618658;229;67260;-66
2023/01/25 09:46:41;;;;;;;;;;;;;;;25.68;49.39;98249.16;618767;229;64774;-67
2023/01/25 09:49:13;;;;;;;;;;;;;;;25.68;49.49;98239.20;618733;229;65187;-67
2023/01/25 09:51:42;;;;;;;;;;;;;;;25.67;48.78;98242.98;618222;229;67220;-66
2023/01/25 09:54:10;;;;;;;;;;;;;;;25.66;48.64;98235.16;618736;229;67039;-68
2023/01/25 09:56:38;;;;;;;;;;;;;;;25.65;48.48;98225.48;618721;229;65006;-66
2023/01/25 09:59:15;;;;;;;;;;;;;;;25.66;48.81;98229.77;618659;229;66846;-66
2023/01/25 10:01:43;;;;;;;;;;;;;;;25.65;48.46;98220.09;618704;229;71482;-63
2023/01/25 10:04:12;;;;;;;;;;;;;;;25.64;48.78;98224.65;618595;228;62930;-67
2023/01/25 10:06:40;;;;;;;;;;;;;;;25.65;48.93;98218.20;618726;229;65089;-68
2023/01/25 10:09:21;;;;;;;;;;;;;;;25.67;49.09;98215.22;618790;229;64254;-67
2023/01/25 10:11:49;;;;;;;;;;;;;;;25.69;48.00;98210.37;618552;229;65034;-68
2023/01/25 10:14:18;;;;;;;;;;;;;;;25.69;49.54;98208.48;618702;229;66900;-68
2023/01/25 10:16:49;;;;;;;;;;;;;;;25.69;48.56;98210.37;618684;229;64864;-67
2023/01/25 10:19:25;;;;;;;;;;;;;;;25.70;49.02;98198.55;618690;229;64991;-68
2023/01/25 10:22:10;;;;;;;;;;;;;;;25.71;47.39;98196.66;617680;229;66964;-69
2023/01/25 10:24:52;;;;;;;;;;;;;;;25.71;49.40;98188.58;618787;229;64701;-62
2023/01/25 10:27:36;;;;;;;;;;;;;;;25.71;49.46;98184.00;618663;227;65273;-66
2023/01/25 10:30:05;;;;;;;;;;;;;;;25.71;48.56;98177.81;618744;229;64693;-65
2023/01/25 10:32:33;;;;;;;;;;;;;;;25.71;49.38;98186.69;616747;229;66889;-68
2023/01/25 10:35:02;;;;;;;;;;;;;;;25.72;48.44;98184.80;618713;229;62952;-67
2023/01/25 10:37:31;;;;;;;;;;;;;;;25.72;49.21;98180.22;617936;229;64698;-65
2023/01/25 10:40:00;;;;;;;;;;;;;;;25.71;48.79;98175.92;616781;229;64976;-65
2023/01/25 10:42:29;;;;;;;;;;;;;;;25.72;48.68;98166.75;615263;230;62725;-66
2023/01/25 10:44:57;;;;;;;;;;;;;;;25.74;49.39;98159.22;615387;230;65255;-67
2023/01/25 10:47:29;;;;;;;;;;;;;;;25.74;48.72;98161.91;615332;230;64949;-67
2023/01/25 10:49:57;;;;;;;;;;;;;;;25.75;48.44;98165.40;615374;230;64993;-66
2023/01/25 10:52:26;;;;;;;;;;;;;;;25.75;49.07;98154.63;615390;230;67131;-67
2023/01/25 10:55:04;;;;;;;;;;;;;;;25.74;48.99;98153.83;615309;230;67178;-66
2023/01/25 10:57:32;;;;;;;;;;;;;;;25.76;48.60;98145.49;615397;230;64834;-66
2023/01/25 11:00:01;;;;;;;;;;;;;;;25.75;48.78;98139.27;615376;230;67239;-67
2023/01/25 11:02:37;;;;;;;;;;;;;;;25.77;48.82;98128.24;615215;230;67562;-66
2023/01/25 11:05:19;;;;;;;;;;;;;;;25.78;49.48;98129.84;615363;230;65073;-66
2023/01/25 11:07:48;;;;;;;;;;;;;;;25.79;49.96;98126.09;615325;230;64980;-68
2023/01/25 11:10:35;;;;;;;;;;;;;;;25.78;49.47;98125.29;615306;230;64843;-64
2023/01/25 11:13:13;;;;;;;;;;;;;;;25.78;49.54;98125.29;615338;230;65233;-65
2023/01/25 11:15:46;;;;;;;;;;;;;;;25.77;48.27;98120.17;615341;230;67147;-65
2023/01/25 11:18:13;;;;;;;;;;;;;;;25.76;48.28;98119.37;615129;230;64898;-66
2023/01/25 11:20:40;;;;;;;;;;;;;;;25.76;48.49;98113.19;615105;230;62920;-67
2023/01/25 11:23:09;;;;;;;;;;;;;;;25.75;48.85;98106.17;615311;230;64954;-67
2023/01/25 11:25:37;;;;;;;;;;;;;;;25.75;47.88;98098.09;613646;230;66879;-66
2023/01/25 11:28:11;;;;;;;;;;;;;;;25.75;47.57;98092.70;615375;228;65152;-66
2023/01/25 11:30:39;;;;;;;;;;;;;;;25.75;48.01;98103.47;615339;230;67300;-66
2023/01/25 11:33:13;;;;;;;;;;;;;;;25.76;48.64;98092.44;615329;230;65299;-66
2023/01/25 11:35:54;;;;;;;;;;;;;;;25.76;48.88;98097.83;615396;230;63082;-66
2023/01/25 11:38:22;;;;;;;;;;;;;;;25.76;49.52;98088.95;615143;230;64962;-64
2023/01/25 11:40:54;;;;;;;;;;;;;;;25.77;43.26;98088.66;615397;229;64934;-65
2023/01/25 11:43:40;;;;;;;;;;;;;;;25.81;45.48;98087.03;615368;230;62890;-66
2023/01/25 11:46:09;;;;;;;;;;;;;;;25.83;48.25;98087.58;615294;230;64521;-67
2023/01/25 11:48:55;;;;;;;;;;;;;;;25.87;45.78;98077.88;615308;230;64854;-67
2023/01/25 11:51:33;;;;;;;;;;;;;;;25.89;47.64;98081.10;615334;230;63017;-66
2023/01/25 11:54:02;;;;;;;;;;;;;;;25.92;48.24;98079.75;615630;228;66913;-65
2023/01/25 11:56:34;;;;;;;;;;;;;;;25.93;47.83;98077.85;615551;230;67012;-62
2023/01/25 11:59:18;;;;;;;;;;;;;;;25.93;47.26;98070.57;615673;230;65226;-68
2023/01/25 12:02:03;;;;;;;;;;;;;;;25.96;48.25;98071.91;615378;230;65206;-66
2023/01/25 12:04:49;;;;;;;;;;;;;;;25.98;47.93;98075.14;615707;230;65130;-65
2023/01/25 12:07:35;;;;;;;;;;;;;;;25.99;48.39;98077.53;615584;228;65285;-65
2023/01/25 12:12:51;;;;;;;;;;;;;;;26.02;47.38;98068.09;585023;242;65380;-66
2023/01/25 12:15:38;;;;;;;;;;;;;;;25.99;47.95;98069.45;584902;242;65396;-66
2023/01/25 12:18:10;;;;;;;;;;;;;;;25.97;48.05;98068.92;584926;242;67076;-67
2023/01/25 12:20:46;;;;;;;;;;;;;;;25.96;47.04;98067.31;585036;242;67077;-67
2023/01/25 12:23:31;;;;;;;;;;;;;;;25.99;49.05;98063.27;584164;242;63059;-67
2023/01/25 12:26:10;;;;;;;;;;;;;;;26.00;47.07;98062.17;584937;242;65154;-67
2023/01/25 12:28:42;;;;;;;;;;;;;;;26.02;47.17;98062.70;584954;242;64942;-66
2023/01/25 12:31:17;;;;;;;;;;;;;;;26.03;48.38;98061.64;585027;242;65302;-65
2023/01/25 12:33:49;;;;;;;;;;;;;;;26.04;47.81;98055.16;582924;242;65195;-67
2023/01/25 12:36:27;;;;;;;;;;;;;;;26.05;47.19;98051.38;584844;242;67013;-67
2023/01/25 12:38:56;;;;;;;;;;;;;;;26.07;46.36;98051.91;584911;242;65307;-66
2023/01/25 12:41:37;;;;;;;;;;;;;;;26.09;47.11;98045.16;584966;242;67357;-67
2023/01/25 12:44:23;;;;;;;;;;;;;;;26.10;48.90;98037.88;584929;242;65504;-67
2023/01/25 12:47:07;;;;;;;;;;;;;;;26.11;47.74;98043.00;584965;242;62684;-68
2023/01/25 12:49:36;;;;;;;;;;;;;;;26.08;47.86;98029.27;584950;242;64915;-66
2023/01/25 12:52:06;;;;;;;;;;;;;;;26.07;45.44;98033.84;585011;242;67287;-64
2023/01/25 12:54:36;;;;;;;;;;;;;;;26.08;46.86;98031.95;584977;242;66054;-63
2023/01/25 12:57:05;;;;;;;;;;;;;;;26.10;47.19;98029.80;584989;242;67250;-66
2023/01/25 12:59:36;;;;;;;;;;;;;;;26.11;47.97;98026.83;584851;242;64942;-66
2023/01/25 13:02:11;;;;;;;;;;;;;;;26.13;47.66;98026.53;584826;242;65046;-66
2023/01/25 13:04:46;;;;;;;;;;;;;;;26.15;46.95;98029.77;584630;242;67337;-66
2023/01/25 13:07:15;;;;;;;;;;;;;;;26.16;47.59;98031.36;584961;242;67101;-66
2023/01/25 13:09:44;;;;;;;;;;;;;;;26.19;47.72;98028.13;584859;242;65254;-66